Time;durP1;ratioP1;P1;durP2;ratioP2;P2;SDS_P1;SDS_P2;PMS_P1;PMS_P2;Temp;Humidity;BMP_temperature;BMP_pressure;BME280_temperature;BME280_humidity;BME280_pressure;Samples;Min_cycle;Max_cycle;Signal;HPM_P1;HPM_P2
2022/02/13 00:01:10;;;;;;;9.13;6.80;;;1.90;99.90;;;2.56;100.00;-19814.00;5113612;28;20284;-64
2022/02/13 00:03:38;;;;;;;9.40;7.80;;;1.90;99.90;;;2.58;100.00;-19814.69;5112900;28;20671;-63
2022/02/13 00:06:08;;;;;;;9.93;7.30;;;1.90;99.90;;;2.38;100.00;-19807.88;5113344;28;20213;-64
2022/02/13 00:08:36;;;;;;;8.73;6.80;;;1.80;99.90;;;2.39;100.00;-19808.19;5113186;28;20213;-58
2022/02/13 00:11:16;;;;;;;10.00;7.03;;;1.70;99.90;;;2.40;100.00;-19808.72;5113084;28;20625;-56
2022/02/13 00:13:45;;;;;;;9.23;6.97;;;1.80;99.90;;;2.45;100.00;-19810.44;5113726;28;20210;-66
2022/02/13 00:16:15;;;;;;;10.03;7.20;;;1.70;99.90;;;2.47;100.00;-19811.09;5113844;28;20200;-66
2022/02/13 00:18:43;;;;;;;8.93;7.70;;;1.80;99.90;;;2.69;100.00;-19818.47;5113139;28;20202;-66
2022/02/13 00:21:31;;;;;;;9.33;7.27;;;1.80;99.90;;;2.46;100.00;-19810.78;5113082;28;20211;-66
2022/02/13 00:23:59;;;;;;;9.43;7.37;;;1.80;99.90;;;2.42;100.00;-19809.41;5113097;28;20538;-65
2022/02/13 00:26:27;;;;;;;8.93;7.30;;;1.80;99.90;;;2.64;100.00;-19816.59;5113025;28;20698;-63
2022/02/13 00:28:55;;;;;;;8.70;7.23;;;1.90;99.90;;;2.55;100.00;-19813.50;5113207;28;20672;-64
2022/02/13 00:31:24;;;;;;;9.00;7.17;;;1.80;99.90;;;2.38;100.00;-19808.03;5113119;28;20266;-64
2022/02/13 00:33:52;;;;;;;10.20;8.30;;;1.80;99.90;;;2.49;100.00;-19811.78;5112742;28;20235;-64
2022/02/13 00:36:20;;;;;;;9.40;7.20;;;1.80;99.90;;;2.65;100.00;-19817.09;5113249;28;20198;-63
2022/02/13 00:38:48;;;;;;;9.40;7.20;;;1.80;99.90;;;2.76;100.00;-19820.69;5113103;28;20200;-64
2022/02/13 00:41:17;;;;;;;10.17;7.33;;;1.80;99.90;;;2.47;100.00;-19810.94;5113014;28;20199;-64
2022/02/13 00:43:45;;;;;;;10.07;7.60;;;1.80;99.90;;;2.49;100.00;-19811.63;5111843;28;20284;-63
2022/02/13 00:46:13;;;;;;;9.63;7.40;;;1.80;99.90;;;2.58;100.00;-19814.53;5112708;28;20246;-63
2022/02/13 00:48:43;;;;;;;9.97;6.80;;;1.80;99.90;;;2.84;100.00;-19823.59;5112506;28;20289;-63
2022/02/13 00:51:11;;;;;;;9.63;7.33;;;1.80;99.90;;;2.73;100.00;-19819.66;5112870;28;20286;-64
2022/02/13 00:53:39;;;;;;;8.37;7.47;;;1.80;99.90;;;2.58;100.00;-19814.69;5112433;28;20690;-63
2022/02/13 00:56:07;;;;;;;9.47;7.07;;;1.80;99.90;;;2.68;100.00;-19818.13;5112400;28;20595;-64
2022/02/13 00:58:36;;;;;;;11.13;7.30;;;1.80;99.90;;;2.57;100.00;-19814.38;5112680;28;20286;-64
2022/02/13 01:01:04;;;;;;;7.80;7.00;;;1.80;99.90;;;2.56;100.00;-19813.84;5104493;27;20290;-66
2022/02/13 01:03:32;;;;;;;8.87;7.10;;;1.80;99.90;;;2.75;100.00;-19820.50;5103028;27;20301;-64
2022/02/13 01:06:01;;;;;;;8.47;7.17;;;1.80;99.90;;;2.35;100.00;-19807.00;5098434;27;20278;-69
2022/02/13 01:08:29;;;;;;;9.87;7.13;;;1.80;99.90;;;2.29;100.00;-19804.97;5112227;28;20227;-61
2022/02/13 01:10:58;;;;;;;8.23;7.33;;;1.70;99.90;;;2.33;100.00;-19806.31;5111835;28;20672;-61
2022/02/13 01:13:26;;;;;;;10.03;7.70;;;1.60;99.90;;;1.96;100.00;-19793.66;5096221;28;20214;-65
2022/02/13 01:15:54;;;;;;;9.73;7.57;;;1.50;99.90;;;2.05;100.00;-19796.56;5092074;28;20220;-64
2022/02/13 01:18:22;;;;;;;8.83;7.10;;;1.50;99.90;;;2.27;100.00;-19804.09;5091637;28;20196;-64
2022/02/13 01:20:51;;;;;;;9.97;7.43;;;1.50;99.90;;;2.29;100.00;-19804.78;5091842;28;20239;-64
2022/02/13 01:23:21;;;;;;;9.03;7.27;;;1.50;99.90;;;2.05;100.00;-19796.75;5091587;28;20706;-65
2022/02/13 01:25:49;;;;;;;9.43;7.17;;;1.40;99.90;;;2.00;100.00;-19795.03;5091768;28;20315;-63
2022/02/13 01:28:17;;;;;;;10.50;7.63;;;1.40;99.90;;;2.05;100.00;-19796.75;5091601;28;20559;-63
2022/02/13 01:30:46;;;;;;;8.60;6.97;;;1.40;99.90;;;2.43;100.00;-19809.56;5091560;28;20294;-63
2022/02/13 01:33:14;;;;;;;8.07;6.87;;;1.50;99.90;;;2.49;100.00;-19811.78;5091386;28;20290;-63
2022/02/13 01:35:42;;;;;;;8.93;7.20;;;1.60;99.90;;;2.28;100.00;-19804.59;5091692;28;20216;-63
2022/02/13 01:38:10;;;;;;;8.27;6.37;;;1.50;99.90;;;2.22;100.00;-19802.56;5091931;28;20196;-63
2022/02/13 01:40:39;;;;;;;8.87;6.63;;;1.50;99.90;;;2.41;100.00;-19809.06;5091484;28;20203;-63
2022/02/13 01:43:07;;;;;;;9.17;6.80;;;1.60;99.90;;;2.46;100.00;-19810.59;5091699;28;20211;-63
2022/02/13 01:45:35;;;;;;;8.27;6.47;;;1.60;99.90;;;2.57;100.00;-19814.19;5091410;28;20223;-63
2022/02/13 01:48:08;;;;;;;8.83;6.37;;;1.70;99.90;;;2.55;100.00;-19813.50;5091052;28;20654;-64
2022/02/13 01:50:37;;;;;;;8.27;6.37;;;1.70;99.90;;;2.25;100.00;-19803.59;5091496;28;20662;-63
2022/02/13 01:53:06;;;;;;;9.30;7.00;;;1.60;99.90;;;2.26;100.00;-19803.94;5091579;28;20282;-63
2022/02/13 01:55:35;;;;;;;8.57;7.33;;;1.60;99.90;;;2.43;100.00;-19809.75;5091272;28;20683;-63
2022/02/13 01:58:06;;;;;;;8.33;6.83;;;1.60;99.90;;;2.45;100.00;-19810.25;5091668;28;20206;-63
2022/02/13 02:00:34;;;;;;;9.80;6.43;;;1.60;99.90;;;2.30;100.00;-19805.28;5091543;28;20230;-63
2022/02/13 02:03:02;;;;;;;9.80;6.53;;;1.60;99.90;;;2.18;100.00;-19801.03;5091275;28;20208;-64
2022/02/13 02:05:31;;;;;;;9.07;6.77;;;1.60;99.90;;;2.25;100.00;-19803.59;5091516;28;20220;-62
2022/02/13 02:07:58;;;;;;;8.47;6.30;;;1.50;99.90;;;2.33;100.00;-19806.16;5091719;28;20245;-63
2022/02/13 02:10:26;;;;;;;8.23;6.60;;;1.60;99.90;;;2.10;100.00;-19798.28;5091337;28;20210;-63
2022/02/13 02:12:55;;;;;;;8.23;6.30;;;1.50;99.90;;;2.22;100.00;-19802.38;5091640;28;20286;-63
2022/02/13 02:15:24;;;;;;;10.73;7.20;;;1.50;99.90;;;2.44;100.00;-19810.09;5091557;28;20200;-64
2022/02/13 02:17:52;;;;;;;8.80;6.80;;;1.60;99.90;;;2.53;100.00;-19812.81;5090958;28;20196;-63
2022/02/13 02:20:20;;;;;;;8.00;6.17;;;1.60;99.90;;;2.56;100.00;-19814.00;5091380;28;20196;-63
2022/02/13 02:22:49;;;;;;;8.03;6.30;;;1.70;99.90;;;2.40;100.00;-19808.56;5091585;28;20284;-63
2022/02/13 02:25:18;;;;;;;9.27;6.00;;;1.70;99.90;;;2.24;100.00;-19803.25;5091458;28;20298;-64
2022/02/13 02:27:46;;;;;;;9.67;6.73;;;1.60;99.90;;;2.42;100.00;-19809.22;5091489;28;20287;-62
2022/02/13 02:30:14;;;;;;;8.40;6.57;;;1.60;99.90;;;2.40;100.00;-19808.72;5091455;28;20290;-63
2022/02/13 02:32:42;;;;;;;9.07;6.43;;;1.70;99.90;;;2.39;100.00;-19808.19;5090899;28;20195;-62
2022/02/13 02:35:11;;;;;;;7.70;6.37;;;1.70;99.90;;;2.30;100.00;-19805.13;5091532;28;20199;-63
2022/02/13 02:37:39;;;;;;;7.37;5.80;;;1.60;99.90;;;2.19;100.00;-19801.38;5091101;28;20287;-63
2022/02/13 02:40:09;;;;;;;6.53;5.83;;;1.60;99.90;;;2.19;100.00;-19801.53;5091106;28;20693;-63
2022/02/13 02:42:38;;;;;;;7.33;5.70;;;1.50;99.90;;;2.27;100.00;-19804.09;5091407;28;20246;-63
2022/02/13 02:45:07;;;;;;;7.23;5.83;;;1.50;99.90;;;2.36;100.00;-19807.19;5091327;28;20295;-63
2022/02/13 02:47:35;;;;;;;7.20;6.00;;;1.50;99.90;;;2.35;100.00;-19806.84;5090932;28;20577;-63
2022/02/13 02:50:03;;;;;;;6.33;5.60;;;1.60;99.90;;;2.62;100.00;-19816.06;5091063;28;20306;-63
2022/02/13 02:52:31;;;;;;;8.13;5.70;;;1.70;99.90;;;2.54;100.00;-19813.16;5091121;28;20200;-63
2022/02/13 02:54:59;;;;;;;6.73;5.13;;;1.70;99.90;;;2.66;100.00;-19817.44;5090755;28;20665;-62
2022/02/13 02:57:27;;;;;;;7.87;5.57;;;1.80;99.90;;;2.64;100.00;-19816.75;5091064;28;20287;-63
2022/02/13 02:59:58;;;;;;;7.33;5.40;;;1.80;99.90;;;2.65;100.00;-19816.91;5090936;28;20247;-63
2022/02/13 03:02:26;;;;;;;6.90;5.57;;;1.80;99.90;;;2.46;100.00;-19810.59;5090864;28;20184;-64
2022/02/13 03:04:56;;;;;;;6.87;5.00;;;1.80;99.90;;;2.28;100.00;-19804.59;5090829;28;20194;-63
2022/02/13 03:07:24;;;;;;;6.43;5.13;;;1.70;99.90;;;2.51;100.00;-19812.31;5092319;28;20269;-63
2022/02/13 03:09:53;;;;;;;7.00;5.13;;;1.70;99.90;;;2.37;100.00;-19807.53;5094323;28;20292;-63
2022/02/13 03:12:21;;;;;;;6.07;5.00;;;1.70;99.90;;;2.44;100.00;-19810.09;5094756;28;20291;-63
2022/02/13 03:14:49;;;;;;;8.13;5.33;;;1.70;99.90;;;2.33;100.00;-19806.31;5094652;28;20293;-67
2022/02/13 03:17:19;;;;;;;6.30;5.30;;;1.70;99.90;;;2.46;100.00;-19810.78;5094717;28;20206;-67
2022/02/13 03:19:47;;;;;;;7.80;5.30;;;1.60;99.90;;;2.31;100.00;-19805.47;5094707;28;20624;-67
2022/02/13 03:22:15;;;;;;;6.57;5.07;;;1.60;99.90;;;2.43;100.00;-19809.56;5094147;28;20664;-67
2022/02/13 03:24:43;;;;;;;5.90;5.30;;;1.60;99.90;;;2.24;100.00;-19803.25;5094156;28;20291;-67
2022/02/13 03:27:11;;;;;;;5.60;4.77;;;1.50;99.90;;;2.06;100.00;-19796.91;5094239;28;20220;-67
2022/02/13 03:29:39;;;;;;;7.13;4.83;;;1.50;99.90;;;2.32;100.00;-19805.97;5094387;28;20283;-66
2022/02/13 03:32:08;;;;;;;7.37;5.00;;;1.50;99.90;;;2.47;100.00;-19810.94;5094118;28;20215;-66
2022/02/13 03:34:37;;;;;;;5.63;4.60;;;1.60;99.90;;;2.48;100.00;-19811.28;5093794;28;20282;-67
2022/02/13 03:37:05;;;;;;;6.20;4.30;;;1.60;99.90;;;2.52;100.00;-19812.47;5094183;28;20192;-68
2022/02/13 03:39:34;;;;;;;10.37;5.10;;;1.60;99.90;;;2.42;100.00;-19809.41;5093876;28;20696;-67
2022/02/13 03:42:02;;;;;;;6.37;4.80;;;1.70;99.90;;;2.47;100.00;-19811.09;5093760;28;20299;-67
2022/02/13 03:44:30;;;;;;;5.20;4.20;;;1.70;99.90;;;2.29;100.00;-19804.97;5093869;28;20254;-67
2022/02/13 03:46:58;;;;;;;5.40;4.53;;;1.70;99.90;;;2.25;100.00;-19803.59;5093774;28;20312;-67
2022/02/13 03:49:26;;;;;;;6.87;4.70;;;1.60;99.90;;;2.02;100.00;-19795.72;5093959;28;20202;-66
2022/02/13 03:51:56;;;;;;;7.33;5.13;;;1.50;99.90;;;2.37;100.00;-19807.69;5093932;28;20200;-69
2022/02/13 03:54:24;;;;;;;5.80;4.80;;;1.60;99.90;;;2.24;100.00;-19803.06;5093829;28;20294;-67
2022/02/13 03:56:53;;;;;;;8.13;5.00;;;1.60;99.90;;;2.33;100.00;-19806.16;5093882;28;20287;-67
2022/02/13 03:59:21;;;;;;;7.47;5.30;;;1.60;99.90;;;2.25;100.00;-19803.59;5093626;28;20300;-67
2022/02/13 04:01:49;;;;;;;6.97;4.70;;;1.50;99.90;;;2.17;100.00;-19800.69;5093608;28;20235;-67
2022/02/13 04:04:17;;;;;;;5.47;4.77;;;1.50;99.90;;;2.09;100.00;-19798.13;5093381;28;20210;-68
2022/02/13 04:06:45;;;;;;;5.63;4.70;;;1.50;99.90;;;1.98;100.00;-19794.19;5093649;28;20648;-66
2022/02/13 04:09:16;;;;;;;9.00;5.30;;;1.40;99.90;;;2.18;100.00;-19801.03;5093409;28;20214;-68
2022/02/13 04:11:44;;;;;;;5.60;4.50;;;1.40;99.90;;;2.22;100.00;-19802.38;5093352;28;20235;-67
2022/02/13 04:14:12;;;;;;;5.33;4.50;;;1.50;99.90;;;2.21;100.00;-19802.06;5093762;28;20214;-67
2022/02/13 04:16:40;;;;;;;6.97;4.93;;;1.40;99.90;;;2.02;100.00;-19795.56;5093021;28;20196;-68
2022/02/13 04:19:08;;;;;;;5.40;4.20;;;1.40;99.90;;;2.30;100.00;-19805.13;5093143;28;20288;-67
2022/02/13 04:21:36;;;;;;;7.93;4.60;;;1.50;99.90;;;2.04;100.00;-19796.25;5093136;28;20286;-65
2022/02/13 04:24:05;;;;;;;7.47;4.50;;;1.40;99.90;;;2.00;100.00;-19795.03;5093761;28;20291;-67
2022/02/13 04:26:34;;;;;;;5.53;4.67;;;1.40;99.90;;;2.10;100.00;-19798.28;5093060;28;20287;-66
2022/02/13 04:29:02;;;;;;;6.37;5.20;;;1.40;99.90;;;1.98;100.00;-19794.19;5093303;28;20279;-66
2022/02/13 04:31:30;;;;;;;6.43;4.63;;;1.40;99.90;;;1.90;100.00;-19791.63;5093019;28;20200;-66
2022/02/13 04:33:58;;;;;;;5.87;4.33;;;1.30;99.90;;;2.37;100.00;-19807.69;5092778;28;20751;-67
2022/02/13 04:36:26;;;;;;;6.17;4.43;;;1.40;99.90;;;2.26;100.00;-19803.94;5092776;28;20331;-68
2022/02/13 04:38:54;;;;;;;5.20;4.20;;;1.50;99.90;;;2.07;100.00;-19797.25;5092781;28;20203;-67
2022/02/13 04:41:23;;;;;;;6.63;4.97;;;1.50;99.90;;;2.03;100.00;-19796.06;5092667;28;20743;-68
2022/02/13 04:43:53;;;;;;;7.13;4.77;;;1.40;99.90;;;2.45;100.00;-19810.25;5092667;28;20238;-67
2022/02/13 04:46:21;;;;;;;5.70;4.57;;;1.50;99.90;;;2.11;100.00;-19798.81;5092651;28;20613;-67
2022/02/13 04:48:49;;;;;;;6.73;4.50;;;1.50;99.90;;;2.26;100.00;-19803.94;5092049;28;20736;-67
2022/02/13 04:51:17;;;;;;;5.50;4.60;;;1.50;99.90;;;2.26;100.00;-19803.94;5092770;28;20204;-68
2022/02/13 04:53:45;;;;;;;7.73;5.20;;;1.60;99.90;;;2.12;100.00;-19798.97;5092673;28;20298;-66
2022/02/13 04:56:15;;;;;;;5.40;4.43;;;1.50;99.90;;;2.13;100.00;-19799.31;5092599;28;20200;-66
2022/02/13 04:58:43;;;;;;;7.27;4.60;;;1.50;99.90;;;2.21;100.00;-19802.22;5092389;28;20223;-68
2022/02/13 05:01:13;;;;;;;6.00;4.33;;;1.40;99.90;;;2.32;100.00;-19805.97;5092282;28;20196;-67
2022/02/13 05:03:41;;;;;;;7.57;4.50;;;1.50;99.90;;;2.18;100.00;-19801.19;5092278;28;20296;-67
2022/02/13 05:06:09;;;;;;;6.43;4.90;;;1.50;99.90;;;2.26;100.00;-19803.75;5092606;28;20290;-67
2022/02/13 05:08:37;;;;;;;5.47;4.73;;;1.50;99.90;;;2.14;100.00;-19799.81;5092315;28;20611;-67
2022/02/13 05:11:05;;;;;;;6.43;4.37;;;1.40;99.90;;;2.17;100.00;-19800.69;5092136;28;20732;-66
2022/02/13 05:13:33;;;;;;;6.83;4.47;;;1.40;99.90;;;2.14;100.00;-19799.66;5092520;28;20203;-67
2022/02/13 05:16:01;;;;;;;6.13;4.70;;;1.40;99.90;;;2.08;100.00;-19797.78;5092368;28;20283;-66
2022/02/13 05:18:30;;;;;;;6.10;4.50;;;1.40;99.90;;;2.06;100.00;-19797.09;5092066;28;20322;-66
2022/02/13 05:20:58;;;;;;;5.90;4.97;;;1.40;99.90;;;1.97;100.00;-19794.00;5092005;28;20784;-67
2022/02/13 05:23:26;;;;;;;6.47;4.80;;;1.30;99.90;;;2.12;100.00;-19798.97;5092157;28;20294;-69
2022/02/13 05:25:54;;;;;;;6.53;4.70;;;1.30;99.90;;;1.84;100.00;-19789.56;5092205;28;20203;-67
2022/02/13 05:28:22;;;;;;;7.37;4.43;;;1.30;99.90;;;1.80;100.00;-19788.19;5091715;28;20788;-67
2022/02/13 05:30:50;;;;;;;6.27;4.67;;;1.20;99.90;;;1.91;100.00;-19791.97;5091730;28;20295;-66
2022/02/13 05:33:18;;;;;;;6.10;4.50;;;1.30;99.90;;;1.83;100.00;-19789.06;5091786;28;20726;-67
2022/02/13 05:35:47;;;;;;;5.80;4.50;;;1.20;99.90;;;1.73;100.00;-19785.81;5091878;28;20284;-67
2022/02/13 05:38:15;;;;;;;5.83;4.37;;;1.20;99.90;;;1.59;100.00;-19781.03;5091615;28;20242;-66
2022/02/13 05:40:43;;;;;;;6.50;4.63;;;1.10;99.90;;;1.85;100.00;-19789.91;5092025;28;20200;-66
2022/02/13 05:43:11;;;;;;;7.17;4.40;;;1.20;99.90;;;1.64;100.00;-19782.72;5091797;28;20283;-66
2022/02/13 05:45:40;;;;;;;5.90;4.47;;;1.10;99.90;;;1.55;100.00;-19779.47;5091821;28;20621;-68
2022/02/13 05:48:08;;;;;;;7.13;4.90;;;1.00;99.90;;;1.82;100.00;-19788.88;5090845;28;20220;-67
2022/02/13 05:50:37;;;;;;;5.70;4.27;;;1.00;99.90;;;1.51;100.00;-19778.28;5091207;28;20290;-66
2022/02/13 05:53:07;;;;;;;5.50;4.47;;;1.00;99.90;;;1.46;100.00;-19776.56;5091305;28;20210;-66
2022/02/13 05:55:35;;;;;;;6.43;4.57;;;1.00;99.90;;;1.75;100.00;-19786.50;5091652;28;20280;-67
2022/02/13 05:58:03;;;;;;;7.27;5.17;;;1.00;99.90;;;1.88;100.00;-19790.94;5091743;28;20282;-66
2022/02/13 06:00:32;;;;;;;6.40;4.40;;;1.00;99.90;;;1.69;100.00;-19784.44;5091371;28;20670;-67
2022/02/13 06:03:00;;;;;;;6.33;5.17;;;1.00;99.90;;;1.89;100.00;-19791.28;5091520;28;20204;-67
2022/02/13 06:05:28;;;;;;;6.93;4.47;;;1.10;99.90;;;1.65;100.00;-19783.06;5091572;28;20238;-66
2022/02/13 06:07:56;;;;;;;5.97;4.70;;;1.00;99.90;;;1.41;100.00;-19774.88;5091326;28;20317;-67
2022/02/13 06:10:26;;;;;;;5.77;4.60;;;1.00;99.90;;;1.42;100.00;-19775.22;5091300;28;20537;-66
2022/02/13 06:12:54;;;;;;;9.47;5.00;;;0.90;99.90;;;1.62;100.00;-19782.06;5091774;28;20744;-66
2022/02/13 06:15:22;;;;;;;5.83;4.60;;;0.90;99.90;;;1.51;100.00;-19778.28;5091447;28;20299;-67
2022/02/13 06:17:51;;;;;;;5.57;4.93;;;0.90;99.90;;;1.46;100.00;-19776.41;5091597;28;20334;-67
2022/02/13 06:20:19;;;;;;;6.50;5.00;;;0.80;99.90;;;1.63;100.00;-19782.22;5091421;28;20283;-66
2022/02/13 06:22:47;;;;;;;5.07;4.57;;;0.80;99.90;;;1.44;100.00;-19775.88;5091413;28;20344;-67
2022/02/13 06:25:15;;;;;;;6.93;4.90;;;0.80;99.90;;;1.52;100.00;-19778.63;5091281;28;20200;-66
2022/02/13 06:27:44;;;;;;;7.53;5.00;;;0.80;99.90;;;1.30;100.00;-19771.09;5091438;28;20208;-67
2022/02/13 06:30:13;;;;;;;6.10;5.00;;;0.80;99.90;;;1.23;100.00;-19768.72;5091718;28;20200;-67
2022/02/13 06:32:41;;;;;;;7.23;5.20;;;0.70;99.90;;;1.28;100.00;-19770.41;5091133;28;20287;-67
2022/02/13 06:35:09;;;;;;;7.57;5.37;;;0.70;99.90;;;1.29;100.00;-19770.75;5090723;28;20739;-68
2022/02/13 06:37:38;;;;;;;7.40;5.10;;;0.70;99.90;;;1.40;100.00;-19774.34;5091417;28;20295;-67
2022/02/13 06:40:08;;;;;;;7.20;6.10;;;0.70;99.90;;;1.48;100.00;-19777.09;5091315;28;20227;-66
2022/02/13 06:42:36;;;;;;;6.73;5.33;;;0.70;99.90;;;1.32;100.00;-19771.63;5092967;28;20768;-68
2022/02/13 06:45:06;;;;;;;9.03;5.60;;;0.70;99.90;;;1.32;100.00;-19771.63;5095349;28;20295;-66
2022/02/13 06:47:39;;;;;;;8.47;5.57;;;0.70;99.90;;;1.40;100.00;-19774.34;5094867;28;20183;-68
2022/02/13 06:50:10;;;;;;;6.87;5.73;;;0.70;99.90;;;1.39;100.00;-19774.19;5094870;28;20207;-66
2022/02/13 06:52:38;;;;;;;7.77;6.17;;;0.70;99.90;;;1.53;100.00;-19778.78;5094740;28;20216;-66
2022/02/13 06:55:07;;;;;;;8.50;6.17;;;0.80;99.90;;;1.55;100.00;-19779.47;5094951;28;20263;-67
2022/02/13 06:57:43;;;;;;;8.57;5.73;;;0.90;99.90;;;1.55;100.00;-19779.66;5094422;28;20738;-67
2022/02/13 07:00:14;;;;;;;8.77;6.17;;;0.90;99.90;;;1.53;100.00;-19778.97;5094323;28;20184;-66
2022/02/13 07:02:43;;;;;;;7.67;5.80;;;0.90;99.90;;;1.76;100.00;-19786.84;5094592;28;20184;-67
2022/02/13 07:05:12;;;;;;;8.13;6.10;;;1.00;99.90;;;1.76;100.00;-19786.84;5094023;28;20719;-67
2022/02/13 07:07:41;;;;;;;7.23;5.87;;;1.00;99.90;;;1.94;100.00;-19793.00;5094397;28;20292;-68
2022/02/13 07:10:12;;;;;;;7.90;5.90;;;1.10;99.90;;;1.80;100.00;-19788.19;5094187;28;20273;-67
2022/02/13 07:12:40;;;;;;;7.33;5.77;;;1.20;99.90;;;1.97;100.00;-19794.00;5094175;28;20263;-67
2022/02/13 07:15:10;;;;;;;7.17;5.50;;;1.20;99.90;;;2.03;100.00;-19796.06;5094253;28;20292;-68
2022/02/13 07:17:45;;;;;;;8.37;6.00;;;1.20;99.90;;;1.89;100.00;-19791.28;5093693;28;20281;-70
2022/02/13 07:20:14;;;;;;;7.93;6.30;;;1.30;99.90;;;2.10;100.00;-19798.47;5094086;28;20271;-68
2022/02/13 07:22:43;;;;;;;7.57;5.67;;;1.30;99.90;;;2.20;100.00;-19801.88;5093859;28;20294;-68
2022/02/13 07:25:11;;;;;;;6.60;5.50;;;1.40;99.90;;;2.30;100.00;-19805.13;5093931;28;20458;-68
2022/02/13 07:27:39;;;;;;;6.27;5.20;;;1.40;99.90;;;2.31;100.00;-19805.63;5093785;28;20239;-67
2022/02/13 07:30:13;;;;;;;8.80;5.63;;;1.50;99.90;;;2.20;100.00;-19801.88;5094132;28;20212;-69
2022/02/13 07:32:44;;;;;;;7.20;5.43;;;1.50;99.90;;;2.66;100.00;-19817.25;5094094;28;20185;-68
2022/02/13 07:35:15;;;;;;;8.97;6.40;;;1.70;99.90;;;2.83;100.00;-19823.06;5094053;28;20184;-68
2022/02/13 07:37:43;;;;;;;8.30;6.00;;;1.90;99.90;;;2.72;100.00;-19819.31;5093824;28;20705;-68
2022/02/13 07:40:14;;;;;;;7.03;5.30;;;1.90;99.90;;;2.83;100.00;-19823.06;5093673;28;20200;-67
2022/02/13 07:42:43;;;;;;;6.97;5.60;;;2.00;99.90;;;2.89;100.00;-19825.13;5093977;28;20275;-68
2022/02/13 07:45:13;;;;;;;7.60;5.97;;;2.00;99.90;;;3.03;99.01;-19829.91;5093737;28;20200;-67
2022/02/13 07:47:41;;;;;;;6.93;5.87;;;2.10;99.90;;;3.11;98.35;-19832.66;5093793;28;20200;-67
2022/02/13 07:50:10;;;;;;;8.30;5.30;;;2.20;99.90;;;3.18;96.95;-19835.03;5093337;28;20285;-68
2022/02/13 07:52:38;;;;;;;6.90;5.00;;;2.30;99.90;;;3.08;97.09;-19831.78;5093000;28;20207;-67
2022/02/13 07:55:07;;;;;;;5.93;5.10;;;2.40;99.90;;;3.16;97.56;-19834.34;5093510;28;20199;-68
2022/02/13 07:57:35;;;;;;;6.20;5.00;;;2.40;99.90;;;3.18;95.67;-19835.22;5093841;28;20287;-67
2022/02/13 08:00:04;;;;;;;7.43;5.60;;;2.50;99.90;;;3.45;94.24;-19844.28;5093711;28;20314;-68
2022/02/13 08:02:32;;;;;;;7.60;5.53;;;2.50;99.90;;;3.55;92.81;-19847.88;5093215;28;20202;-69
2022/02/13 08:05:00;;;;;;;5.67;5.07;;;2.70;99.90;;;3.64;91.23;-19850.94;5093003;28;20743;-67
2022/02/13 08:07:30;;;;;;;6.27;4.90;;;2.80;99.90;;;3.69;91.29;-19852.47;5093557;28;20294;-67
2022/02/13 08:09:58;;;;;;;6.63;5.43;;;2.80;99.90;;;3.79;90.53;-19855.91;5093377;28;20315;-63
2022/02/13 08:12:26;;;;;;;5.50;4.90;;;2.90;99.90;;;3.87;89.03;-19858.47;5093191;28;20207;-63
2022/02/13 08:14:54;;;;;;;7.93;5.50;;;2.90;99.90;;;4.01;88.28;-19863.41;5093459;28;20251;-64
2022/02/13 08:17:23;;;;;;;7.07;5.30;;;3.00;99.90;;;4.16;86.87;-19868.38;5093267;28;20287;-66
2022/02/13 08:19:51;;;;;;;6.47;5.27;;;3.10;99.90;;;4.01;86.20;-19863.25;5092874;28;20208;-63
2022/02/13 08:22:19;;;;;;;6.73;5.60;;;3.20;99.90;;;4.00;86.97;-19862.91;5092752;28;20237;-64
2022/02/13 08:24:48;;;;;;;7.23;5.47;;;3.20;99.90;;;3.99;86.28;-19862.56;5092810;28;20240;-63
2022/02/13 08:27:16;;;;;;;5.80;5.13;;;3.20;99.90;;;4.33;85.76;-19874.19;5093269;28;20696;-69
2022/02/13 08:29:47;;;;;;;8.23;5.60;;;3.40;99.90;;;4.41;84.21;-19877.09;5092940;28;20312;-65
2022/02/13 08:32:15;;;;;;;6.90;5.53;;;3.40;99.90;;;4.52;82.86;-19880.84;5093115;28;20200;-63
2022/02/13 08:34:43;;;;;;;5.73;4.93;;;3.60;99.90;;;4.56;82.36;-19882.22;5092789;28;20285;-64
2022/02/13 08:37:11;;;;;;;7.47;5.33;;;3.60;99.90;;;4.58;82.14;-19882.91;5092925;28;20292;-64
2022/02/13 08:39:39;;;;;;;9.13;5.30;;;3.70;99.90;;;4.72;82.03;-19887.69;5092539;28;20233;-64
2022/02/13 08:42:13;;;;;;;7.93;5.93;;;3.80;99.90;;;4.85;81.04;-19892.13;5093076;28;20188;-63
2022/02/13 08:44:44;;;;;;;6.50;5.80;;;3.80;99.90;;;4.70;78.98;-19887.00;5092804;28;20323;-65
2022/02/13 08:47:13;;;;;;;5.57;4.90;;;3.90;99.90;;;4.67;79.54;-19885.97;5092807;28;20628;-65
2022/02/13 08:49:41;;;;;;;8.77;5.73;;;3.80;99.90;;;4.75;79.57;-19888.72;5092918;28;20226;-64
2022/02/13 08:52:09;;;;;;;7.77;5.80;;;3.80;99.90;;;4.77;79.09;-19889.22;5092972;28;20204;-64
2022/02/13 08:54:37;;;;;;;7.07;5.90;;;3.90;99.90;;;4.74;79.51;-19888.38;5092579;28;20282;-64
2022/02/13 08:57:06;;;;;;;7.77;5.80;;;3.80;99.90;;;4.92;78.28;-19894.53;5092668;28;20294;-63
2022/02/13 08:59:35;;;;;;;6.40;5.33;;;4.00;99.90;;;4.81;77.95;-19890.78;5092566;28;20280;-63
2022/02/13 09:02:03;;;;;;;6.70;5.83;;;3.90;99.90;;;5.13;77.88;-19901.53;5091988;28;20292;-64
2022/02/13 09:04:32;;;;;;;8.43;5.97;;;4.10;99.90;;;5.13;76.53;-19901.53;5091600;28;20292;-63
2022/02/13 09:07:00;;;;;;;7.37;5.73;;;4.20;99.90;;;5.08;76.67;-19899.81;5091966;28;20221;-65
2022/02/13 09:09:28;;;;;;;6.87;5.37;;;4.20;99.90;;;5.06;77.72;-19898.97;5091882;28;20313;-65
2022/02/13 09:11:57;;;;;;;6.13;5.20;;;4.20;99.90;;;5.08;76.50;-19899.81;5091954;28;20245;-64
2022/02/13 09:14:25;;;;;;;6.83;5.93;;;4.20;99.90;;;5.05;77.70;-19898.63;5092169;28;20214;-67
2022/02/13 09:16:55;;;;;;;6.77;5.67;;;4.20;99.90;;;5.20;78.02;-19903.75;5091942;28;20286;-64
2022/02/13 09:19:23;;;;;;;6.70;5.93;;;4.30;99.90;;;5.31;76.59;-19907.53;5091829;28;20236;-64
2022/02/13 09:21:52;;;;;;;8.17;6.13;;;4.30;99.90;;;5.21;76.95;-19904.09;5091674;28;20289;-64
2022/02/13 09:24:23;;;;;;;7.23;5.60;;;4.40;99.90;;;5.50;76.58;-19914.00;5091814;28;20186;-64
2022/02/13 09:26:52;;;;;;;8.20;5.80;;;4.40;99.90;;;5.56;75.13;-19916.25;5091708;28;20211;-64
2022/02/13 09:29:20;;;;;;;6.43;5.80;;;4.50;99.90;;;5.52;75.31;-19914.69;5092066;28;20193;-64
2022/02/13 09:31:48;;;;;;;6.73;5.37;;;4.60;99.90;;;5.50;74.32;-19914.00;5091768;28;20209;-64
2022/02/13 09:34:18;;;;;;;6.17;5.57;;;4.60;99.90;;;5.63;73.30;-19918.63;5091438;28;20209;-63
2022/02/13 09:36:47;;;;;;;6.73;5.53;;;4.70;99.90;;;5.73;73.03;-19921.88;5091831;28;20184;-65
2022/02/13 09:39:15;;;;;;;6.57;4.87;;;4.70;99.90;;;5.78;72.54;-19923.75;5092022;28;20213;-64
2022/02/13 09:41:45;;;;;;;6.27;5.00;;;4.80;99.90;;;5.88;73.40;-19927.19;5091910;28;20210;-64
2022/02/13 09:44:13;;;;;;;7.73;5.50;;;4.90;99.90;;;5.92;71.96;-19928.53;5091642;28;20198;-65
2022/02/13 09:46:44;;;;;;;6.40;5.40;;;4.90;99.90;;;6.28;70.83;-19940.50;5091380;28;20207;-67
2022/02/13 09:49:13;;;;;;;10.37;5.50;;;5.10;99.90;;;6.28;70.30;-19940.50;5091401;28;20272;-64
2022/02/13 09:51:42;;;;;;;7.33;5.43;;;5.20;99.90;;;6.27;70.56;-19940.34;5091483;28;20266;-63
2022/02/13 09:54:11;;;;;;;6.60;5.70;;;5.30;99.90;;;6.15;70.02;-19936.25;5091290;28;20709;-64
2022/02/13 09:56:39;;;;;;;6.43;4.80;;;5.20;99.90;;;6.15;70.48;-19936.41;5091233;28;20298;-65
2022/02/13 09:59:08;;;;;;;7.60;5.27;;;5.20;99.90;;;6.39;70.09;-19944.44;5091508;28;20207;-64
2022/02/13 10:01:38;;;;;;;7.37;5.50;;;5.30;99.90;;;6.50;68.77;-19948.03;5091361;28;20226;-65
2022/02/13 10:04:09;;;;;;;7.00;5.63;;;5.40;99.90;;;6.34;70.05;-19942.56;5091104;28;20279;-64
2022/02/13 10:06:40;;;;;;;5.37;4.77;;;5.40;99.90;;;6.31;69.14;-19941.69;5091387;28;20215;-64
2022/02/13 10:09:11;;;;;;;8.67;5.57;;;5.50;99.90;;;6.47;69.92;-19947.00;5091260;28;20290;-65
2022/02/13 10:11:43;;;;;;;7.40;4.90;;;5.50;99.90;;;6.54;69.54;-19949.41;5091617;28;20211;-65
2022/02/13 10:14:15;;;;;;;6.00;5.10;;;5.60;99.90;;;6.54;69.00;-19949.56;5091425;28;20188;-65
2022/02/13 10:16:49;;;;;;;6.90;5.07;;;5.60;99.90;;;6.69;68.01;-19954.53;5093403;28;20594;-65
2022/02/13 10:19:23;;;;;;;5.70;4.90;;;5.70;99.90;;;6.67;68.22;-19954.00;5095041;28;20793;-65
2022/02/13 10:21:54;;;;;;;7.27;4.60;;;5.80;99.90;;;6.84;67.81;-19959.81;5095629;28;20199;-65
2022/02/13 10:24:28;;;;;;;6.27;4.90;;;5.80;99.90;;;6.95;67.59;-19963.41;5095838;28;20267;-65
2022/02/13 10:27:12;;;;;;;6.07;5.10;;;5.90;99.90;;;7.03;67.10;-19966.31;5095900;28;20245;-65